Time;durP1;ratioP1;P1;durP2;ratioP2;P2;SDS_P1;SDS_P2;PMS_P1;PMS_P2;Temp;Humidity;BMP_temperature;BMP_pressure;BME280_temperature;BME280_humidity;BME280_pressure;Samples;Min_cycle;Max_cycle;Signal;HPM_P1;HPM_P2
2022/03/06 00:01:23;;;;;;;117.68;36.22;;;;;;;0.74;62.81;100578.59;5124645;28;20035;-78
2022/03/06 00:03:50;;;;;;;97.78;32.47;;;;;;;0.80;63.69;100580.34;5122272;27;20046;-78
2022/03/06 00:06:19;;;;;;;100.55;33.10;;;;;;;0.82;63.06;100574.13;5125883;27;20501;-78
2022/03/06 00:08:48;;;;;;;76.30;26.67;;;;;;;0.86;61.29;100581.19;5126883;27;20047;-78
2022/03/06 00:11:15;;;;;;;37.35;15.82;;;;;;;0.78;61.30;100583.03;5127299;27;20064;-77
2022/03/06 00:13:43;;;;;;;43.10;16.05;;;;;;;0.89;60.99;100579.41;5127511;27;20504;-78
2022/03/06 00:16:10;;;;;;;51.17;19.45;;;;;;;0.91;61.47;100573.22;5116926;28;20512;-78
2022/03/06 00:18:38;;;;;;;47.88;20.13;;;;;;;0.92;61.71;100571.41;5116919;27;20047;-78
2022/03/06 00:21:06;;;;;;;47.80;19.45;;;;;;;0.80;61.72;100570.59;5125346;27;20043;-78
2022/03/06 00:23:36;;;;;;;44.85;17.63;;;;;;;0.80;61.78;100575.91;5128747;27;20390;-79
2022/03/06 00:26:04;;;;;;;42.00;17.90;;;;;;;0.66;62.32;100578.63;5124956;27;20050;-77
2022/03/06 00:28:31;;;;;;;29.85;12.27;;;;;;;0.69;61.81;100573.28;5129066;27;20043;-78
2022/03/06 00:30:59;;;;;;;32.10;12.77;;;;;;;0.62;63.12;100571.56;5124358;27;20422;-77
2022/03/06 00:33:26;;;;;;;48.78;16.77;;;;;;;0.69;63.44;100580.41;5132565;27;20119;-78
2022/03/06 00:35:54;;;;;;;98.80;25.75;;;;;;;0.64;63.27;100574.22;5129838;27;20044;-78
2022/03/06 00:38:22;;;;;;;104.93;28.65;;;;;;;0.59;63.99;100576.88;5116463;27;20043;-78
2022/03/06 00:40:51;;;;;;;132.30;39.10;;;;;;;0.62;63.77;100576.88;5122513;27;20050;-78
2022/03/06 00:43:18;;;;;;;176.05;46.17;;;;;;;0.59;64.31;100576.88;5130769;27;20043;-78
2022/03/06 00:45:46;;;;;;;177.30;46.80;;;;;;;0.61;64.71;100568.88;5121899;27;20054;-78
2022/03/06 00:48:14;;;;;;;135.43;36.35;;;;;;;0.62;65.39;100568.03;5131036;27;20043;-78
2022/03/06 00:50:42;;;;;;;104.38;27.73;;;;;;;0.65;65.43;100574.19;5121008;27;20532;-77
2022/03/06 00:53:09;;;;;;;55.53;19.20;;;;;;;0.69;66.09;100567.09;5136675;27;20054;-78
2022/03/06 00:55:37;;;;;;;53.47;16.70;;;;;;;0.64;65.67;100571.56;5132451;27;20040;-78
2022/03/06 00:58:06;;;;;;;31.75;11.57;;;;;;;0.64;65.02;100556.47;5116049;28;20396;-78
2022/03/06 01:00:35;;;;;;;23.70;9.18;;;;;;;0.72;66.73;100569.75;5119546;27;20046;-78
2022/03/06 01:03:04;;;;;;;97.22;28.88;;;;;;;0.68;66.71;100565.34;5132118;27;20043;-77
2022/03/06 01:05:32;;;;;;;92.10;24.80;;;;;;;0.62;66.09;100568.03;5115502;27;20550;-78
2022/03/06 01:08:00;;;;;;;77.57;22.52;;;;;;;0.64;65.85;100556.47;5122970;27;20504;-77
2022/03/06 01:10:27;;;;;;;101.90;24.40;;;;;;;0.57;66.45;100555.59;5129739;27;20043;-78
2022/03/06 01:12:55;;;;;;;98.55;26.38;;;;;;;0.60;66.74;100556.47;5122018;27;20047;-78
2022/03/06 01:15:24;;;;;;;111.30;25.75;;;;;;;0.55;67.59;100549.41;5130330;27;20044;-78
2022/03/06 01:17:52;;;;;;;26.92;9.30;;;;;;;0.57;67.33;100552.06;5120777;27;20043;-77
2022/03/06 01:20:20;;;;;;;19.25;6.50;;;;;;;0.63;68.86;100545.88;5130674;27;20070;-77
2022/03/06 01:22:48;;;;;;;113.90;31.60;;;;;;;0.61;67.92;100558.25;5120689;27;20524;-78
2022/03/06 01:25:15;;;;;;;92.72;27.50;;;;;;;0.62;66.69;100552.94;5131142;27;20521;-78
2022/03/06 01:27:43;;;;;;;57.65;17.73;;;;;;;0.56;65.92;100551.19;5120106;27;20096;-78
2022/03/06 01:30:15;;;;;;;47.33;14.60;;;;;;;0.68;66.26;100550.25;5131747;27;20048;-77
2022/03/06 01:32:44;;;;;;;26.42;11.23;;;;;;;0.69;65.95;100553.81;5115826;28;20047;-78
2022/03/06 01:35:12;;;;;;;17.85;7.80;;;;;;;0.60;65.96;100552.06;5116762;27;20051;-77
2022/03/06 01:37:39;;;;;;;14.80;6.72;;;;;;;0.66;66.47;100545.84;5118958;27;20054;-78
2022/03/06 01:40:08;;;;;;;13.10;6.00;;;;;;;0.61;66.37;100547.63;5135900;27;20042;-78
2022/03/06 01:42:40;;;;;;;13.75;5.70;;;;;;;0.56;66.07;100545.00;5135058;27;20042;-78
2022/03/06 01:45:09;;;;;;;19.08;8.05;;;;;;;0.53;65.67;100543.22;5133850;27;20044;-78
2022/03/06 01:47:39;;;;;;;40.60;15.55;;;;;;;0.52;65.79;100544.09;5117770;27;20043;-77
2022/03/06 01:50:10;;;;;;;33.65;13.07;;;;;;;0.50;66.93;100535.25;5128243;27;20051;-78
2022/03/06 01:52:38;;;;;;;33.45;14.32;;;;;;;0.51;66.65;100539.69;5123442;27;20040;-78
2022/03/06 01:55:06;;;;;;;49.53;17.75;;;;;;;0.51;66.91;100546.78;5128461;27;20047;-78
2022/03/06 01:57:34;;;;;;;48.35;18.75;;;;;;;0.50;67.16;100551.22;5125990;27;20443;-78
2022/03/06 02:00:04;;;;;;;42.08;15.85;;;;;;;0.55;67.97;100546.75;5124601;27;20051;-78
2022/03/06 02:02:34;;;;;;;32.50;12.52;;;;;;;0.54;66.85;100538.81;5126457;27;20038;-78
2022/03/06 02:05:01;;;;;;;19.98;9.18;;;;;;;0.54;66.10;100531.69;5124812;27;20071;-78
2022/03/06 02:07:30;;;;;;;17.50;7.50;;;;;;;0.56;66.10;100539.69;5125161;27;20054;-78
2022/03/06 02:09:58;;;;;;;10.43;4.75;;;;;;;0.52;65.91;100537.94;5125181;27;20050;-77
2022/03/06 02:12:26;;;;;;;10.63;4.53;;;;;;;0.53;64.94;100529.91;5114626;27;20120;-78
2022/03/06 02:14:55;;;;;;;10.75;4.28;;;;;;;0.54;66.46;100531.69;5114702;27;20051;-78
2022/03/06 02:17:23;;;;;;;10.05;4.40;;;;;;;0.57;66.71;100538.78;5123329;27;20047;-78
2022/03/06 02:19:52;;;;;;;10.13;4.00;;;;;;;0.57;65.66;100542.31;5126473;27;20121;-78
2022/03/06 02:22:21;;;;;;;13.57;6.25;;;;;;;0.50;65.88;100537.91;5122763;27;20096;-77
2022/03/06 02:24:49;;;;;;;11.18;4.85;;;;;;;0.51;65.76;100531.72;5126508;27;20048;-78
2022/03/06 02:27:17;;;;;;;9.27;4.25;;;;;;;0.59;65.09;100537.00;5122343;27;20047;-78
2022/03/06 02:29:45;;;;;;;9.93;4.70;;;;;;;0.63;64.52;100536.09;5126141;27;20486;-78
2022/03/06 02:32:14;;;;;;;10.90;5.22;;;;;;;0.60;64.04;100536.09;5125910;27;20541;-78
2022/03/06 02:34:44;;;;;;;14.02;5.88;;;;;;;0.56;64.39;100537.88;5123046;27;20059;-78
2022/03/06 02:37:12;;;;;;;9.60;4.82;;;;;;;0.55;65.32;100540.56;5125608;27;20050;-77
2022/03/06 02:39:41;;;;;;;11.38;5.40;;;;;;;0.52;65.59;100537.94;5123622;27;20039;-78
2022/03/06 02:42:09;;;;;;;11.85;4.88;;;;;;;0.52;65.98;100536.13;5125061;27;20151;-78
2022/03/06 02:44:38;;;;;;;10.70;4.50;;;;;;;0.62;64.95;100533.47;5123528;27;20046;-78
2022/03/06 02:47:06;;;;;;;11.90;4.80;;;;;;;0.62;65.30;100536.13;5124436;27;20485;-78
2022/03/06 02:49:33;;;;;;;10.48;4.90;;;;;;;0.51;65.59;100530.84;5124333;27;20387;-78
2022/03/06 02:52:01;;;;;;;13.27;5.60;;;;;;;0.42;65.01;100535.31;5113973;27;20051;-78
2022/03/06 02:54:28;;;;;;;19.65;7.63;;;;;;;0.48;65.96;100531.72;5114005;27;20043;-78
2022/03/06 02:56:57;;;;;;;30.95;12.23;;;;;;;0.52;66.30;100528.16;5122778;27;20043;-79
2022/03/06 02:59:25;;;;;;;36.28;15.52;;;;;;;0.50;65.69;100524.63;5125389;27;20043;-78
2022/03/06 03:01:54;;;;;;;28.50;13.65;;;;;;;0.48;66.12;100515.78;5122048;27;20043;-78
2022/03/06 03:04:22;;;;;;;24.27;10.30;;;;;;;0.47;65.80;100514.00;5126007;27;20052;-79
2022/03/06 03:06:50;;;;;;;22.23;9.45;;;;;;;0.49;66.90;100524.66;5121547;27;20043;-78
2022/03/06 03:09:19;;;;;;;23.83;10.73;;;;;;;0.49;66.60;100522.84;5126700;27;20044;-78
2022/03/06 03:11:48;;;;;;;19.20;8.05;;;;;;;0.49;65.98;100520.19;5121068;27;20054;-77
2022/03/06 03:14:16;;;;;;;16.75;7.50;;;;;;;0.49;67.00;100517.53;5126759;27;20481;-78
2022/03/06 03:16:44;;;;;;;11.00;5.30;;;;;;;0.48;65.07;100520.22;5120553;27;20493;-78
2022/03/06 03:19:12;;;;;;;9.48;4.25;;;;;;;0.48;64.69;100523.75;5127539;27;20058;-78
2022/03/06 03:21:39;;;;;;;9.73;4.40;;;;;;;0.50;62.79;100527.28;5119775;27;20099;-78
2022/03/06 03:24:08;;;;;;;9.75;4.30;;;;;;;0.53;63.71;100527.25;5128315;27;20119;-78
2022/03/06 03:26:36;;;;;;;9.43;4.28;;;;;;;0.51;64.42;100529.03;5119085;27;20047;-78
2022/03/06 03:29:04;;;;;;;10.20;4.50;;;;;;;0.50;64.23;100523.75;5133620;27;20389;-78
2022/03/06 03:31:33;;;;;;;10.88;4.53;;;;;;;0.50;65.27;100527.28;5129162;27;20054;-78
2022/03/06 03:34:00;;;;;;;13.77;5.50;;;;;;;0.51;64.64;100525.53;5113178;27;20048;-78
2022/03/06 03:36:28;;;;;;;18.25;9.07;;;;;;;0.49;64.61;100527.31;5117774;27;20482;-78
2022/03/06 03:38:56;;;;;;;37.78;19.25;;;;;;;0.43;65.64;100529.09;5129981;27;20043;-78
2022/03/06 03:41:24;;;;;;;22.05;10.52;;;;;;;0.51;65.06;100530.84;5117662;27;20070;-78
2022/03/06 03:43:52;;;;;;;20.38;9.18;;;;;;;0.47;64.54;100534.41;5120499;27;20047;-78
2022/03/06 03:46:20;;;;;;;36.55;13.60;;;;;;;0.47;65.25;100531.75;5135168;27;20055;-78
2022/03/06 03:48:49;;;;;;;72.72;21.77;;;;;;;0.45;64.41;100525.56;5119917;27;20058;-77
2022/03/06 03:51:16;;;;;;;55.00;16.05;;;;;;;0.41;65.02;100528.22;5131398;27;20506;-78
2022/03/06 03:53:44;;;;;;;63.92;22.17;;;;;;;0.49;64.91;100538.81;5123692;27;20050;-78
2022/03/06 03:56:11;;;;;;;49.40;17.90;;;;;;;0.42;65.53;100537.06;5132210;27;20505;-78
2022/03/06 03:58:39;;;;;;;21.08;9.25;;;;;;;0.42;66.39;100540.63;5122539;27;20047;-78
2022/03/06 04:01:07;;;;;;;11.70;5.43;;;;;;;0.38;67.16;100535.31;5132838;27;20039;-78
2022/03/06 04:03:34;;;;;;;10.25;4.90;;;;;;;0.42;67.63;100545.03;5122020;27;20047;-78
2022/03/06 04:06:03;;;;;;;11.38;4.78;;;;;;;0.41;68.39;100537.94;5133497;27;20048;-78
2022/03/06 04:08:31;;;;;;;12.90;5.97;;;;;;;0.35;68.60;100543.28;5117320;27;20066;-78
2022/03/06 04:10:59;;;;;;;23.45;11.32;;;;;;;0.34;68.03;100542.41;5116995;27;20055;-78
2022/03/06 04:13:27;;;;;;;22.52;10.07;;;;;;;0.33;68.47;100545.94;5120134;27;20039;-78
2022/03/06 04:15:55;;;;;;;15.13;7.18;;;;;;;0.32;68.25;100544.16;5134492;27;20054;-78
2022/03/06 04:18:22;;;;;;;12.20;5.65;;;;;;;0.31;68.81;100546.84;5119904;27;20047;-78
2022/03/06 04:20:50;;;;;;;10.43;4.90;;;;;;;0.34;69.62;100545.06;5134954;27;20043;-78
2022/03/06 04:23:19;;;;;;;13.05;6.18;;;;;;;0.35;69.75;100548.63;5118844;27;20043;-78
2022/03/06 04:25:47;;;;;;;13.02;5.78;;;;;;;0.33;68.96;100547.72;5135129;27;20040;-78
2022/03/06 04:28:14;;;;;;;10.10;4.90;;;;;;;0.33;69.04;100545.06;5118260;27;20528;-78
2022/03/06 04:30:42;;;;;;;10.55;4.78;;;;;;;0.30;69.50;100539.78;5136088;27;20043;-78
2022/03/06 04:33:09;;;;;;;10.90;5.03;;;;;;;0.34;69.32;100534.41;5117136;27;20109;-78
2022/03/06 04:35:37;;;;;;;9.50;4.80;;;;;;;0.34;70.00;100536.22;5136704;27;20043;-78
2022/03/06 04:38:04;;;;;;;11.45;4.80;;;;;;;0.34;69.96;100538.88;5116597;27;20055;-78
2022/03/06 04:40:33;;;;;;;11.38;5.30;;;;;;;0.34;69.03;100544.19;5115990;27;20052;-78
2022/03/06 04:43:01;;;;;;;12.00;6.20;;;;;;;0.41;69.30;100536.19;5116598;27;20406;-78
2022/03/06 04:45:29;;;;;;;17.23;8.73;;;;;;;0.35;68.71;100541.50;5116316;27;20050;-77
2022/03/06 04:47:56;;;;;;;12.20;5.70;;;;;;;0.32;68.65;100540.66;5116365;27;20035;-78
2022/03/06 04:50:24;;;;;;;12.65;5.63;;;;;;;0.35;68.50;100545.94;5116160;27;20092;-78
2022/03/06 04:52:51;;;;;;;12.65;5.70;;;;;;;0.37;68.93;100549.50;5115236;27;20054;-78
2022/03/06 04:55:19;;;;;;;11.30;5.10;;;;;;;0.38;69.22;100540.63;5115855;28;20066;-78
2022/03/06 04:57:48;;;;;;;11.63;5.88;;;;;;;0.41;68.52;100536.19;5116277;27;20051;-78
2022/03/06 05:00:16;;;;;;;11.15;5.35;;;;;;;0.36;69.08;100529.97;5116242;27;20047;-78
2022/03/06 05:02:44;;;;;;;13.18;6.30;;;;;;;0.40;67.67;100534.41;5116048;27;20050;-78
2022/03/06 05:05:12;;;;;;;12.05;5.85;;;;;;;0.40;67.73;100533.53;5116195;27;20050;-78
2022/03/06 05:07:39;;;;;;;15.00;7.20;;;;;;;0.35;66.91;100538.84;5116019;27;20047;-77
2022/03/06 05:10:11;;;;;;;16.35;8.05;;;;;;;0.38;65.17;100532.66;5115621;27;20036;-77
2022/03/06 05:12:40;;;;;;;17.73;10.38;;;;;;;0.34;66.56;100534.41;5116841;28;20054;-78
2022/03/06 05:15:11;;;;;;;15.65;8.40;;;;;;;0.36;67.72;100540.63;5115787;28;20052;-78
2022/03/06 05:17:39;;;;;;;19.60;8.68;;;;;;;0.36;68.18;100542.41;5119886;27;20103;-78
2022/03/06 05:20:08;;;;;;;18.85;8.98;;;;;;;0.37;67.20;100531.75;5132356;27;20036;-78
2022/03/06 05:22:35;;;;;;;17.23;8.00;;;;;;;0.35;66.84;100541.50;5118957;27;20039;-78
2022/03/06 05:25:04;;;;;;;13.77;6.50;;;;;;;0.32;66.48;100533.53;5132418;27;20424;-77
2022/03/06 05:27:31;;;;;;;12.77;6.03;;;;;;;0.31;65.84;100539.75;5118444;27;20047;-77
2022/03/06 05:29:59;;;;;;;21.83;7.85;;;;;;;0.30;65.96;100532.66;5133510;27;20036;-78
2022/03/06 05:32:28;;;;;;;41.33;12.95;;;;;;;0.38;65.17;100535.31;5117244;27;20044;-76
2022/03/06 05:34:55;;;;;;;15.30;6.75;;;;;;;0.43;65.80;100537.06;5135895;27;20043;-78
2022/03/06 05:37:23;;;;;;;15.88;7.00;;;;;;;0.40;66.33;100529.06;5135782;27;20574;-78
2022/03/06 05:39:51;;;;;;;12.15;6.03;;;;;;;0.42;66.20;100526.44;5130321;27;20054;-78
2022/03/06 05:42:19;;;;;;;12.55;6.65;;;;;;;0.45;65.57;100526.41;5119966;27;20047;-78
2022/03/06 05:44:47;;;;;;;11.60;5.78;;;;;;;0.48;65.16;100534.38;5131050;27;20043;-78
2022/03/06 05:47:14;;;;;;;10.02;5.28;;;;;;;0.46;64.31;100527.31;5119297;27;20043;-77
2022/03/06 05:49:43;;;;;;;15.60;7.00;;;;;;;0.50;64.95;100529.06;5131954;27;20043;-78
2022/03/06 05:52:11;;;;;;;20.83;9.82;;;;;;;0.49;64.74;100525.50;5118552;27;20416;-78
2022/03/06 05:54:39;;;;;;;12.80;5.90;;;;;;;0.43;64.41;100530.84;5127913;27;20044;-79
2022/03/06 05:57:07;;;;;;;10.82;5.28;;;;;;;0.51;64.29;100531.72;5121890;27;20043;-77
2022/03/06 05:59:34;;;;;;;10.90;5.40;;;;;;;0.48;64.84;100529.06;5124481;27;20066;-78
2022/03/06 06:02:02;;;;;;;13.07;6.28;;;;;;;0.56;64.30;100535.22;5125258;27;20043;-77
2022/03/06 06:04:30;;;;;;;12.50;5.57;;;;;;;0.58;63.82;100530.78;5130280;27;20047;-77
2022/03/06 06:06:59;;;;;;;13.40;5.40;;;;;;;0.58;64.18;100532.56;5122016;27;20055;-76
2022/03/06 06:09:26;;;;;;;23.00;10.85;;;;;;;0.57;64.08;100529.03;5119754;27;20047;-77
2022/03/06 06:11:54;;;;;;;24.38;10.93;;;;;;;0.56;62.93;100524.59;5122901;27;20054;-78
2022/03/06 06:14:21;;;;;;;15.07;6.30;;;;;;;0.57;62.30;100530.81;5119589;27;20503;-77
2022/03/06 06:16:49;;;;;;;13.05;5.28;;;;;;;0.57;61.91;100537.00;5131649;27;20081;-76
2022/03/06 06:19:17;;;;;;;9.93;5.10;;;;;;;0.61;62.53;100535.22;5123983;27;20043;-78
2022/03/06 06:21:44;;;;;;;10.77;4.75;;;;;;;0.68;61.97;100538.75;5117688;27;20050;-78
2022/03/06 06:24:13;;;;;;;11.82;5.15;;;;;;;0.68;61.83;100533.44;5124607;27;20047;-78
2022/03/06 06:26:41;;;;;;;11.50;5.55;;;;;;;0.72;62.41;100538.72;5117372;27;20054;-77
2022/03/06 06:29:09;;;;;;;9.95;4.85;;;;;;;0.73;62.09;100531.63;5125103;27;20051;-78
2022/03/06 06:31:36;;;;;;;13.27;5.90;;;;;;;0.77;61.22;100536.03;5116245;27;20073;-76
2022/03/06 06:34:04;;;;;;;12.88;5.95;;;;;;;0.77;60.29;100533.38;5128741;27;20048;-78
2022/03/06 06:36:32;;;;;;;11.00;5.18;;;;;;;0.78;59.65;100542.22;5118929;27;20047;-80
2022/03/06 06:38:59;;;;;;;11.65;4.78;;;;;;;0.80;60.02;100530.69;5130211;27;20089;-80
2022/03/06 06:41:28;;;;;;;10.80;5.53;;;;;;;0.79;58.74;100534.25;5114346;28;20485;-79
2022/03/06 06:43:56;;;;;;;12.93;5.68;;;;;;;0.79;58.91;100536.91;5114099;27;20043;-79
2022/03/06 06:46:23;;;;;;;11.32;5.90;;;;;;;0.86;59.93;100543.97;5117608;27;20047;-79
2022/03/06 06:48:51;;;;;;;11.63;5.63;;;;;;;0.92;59.51;100534.19;5131667;27;20494;-79
2022/03/06 06:51:18;;;;;;;15.00;6.65;;;;;;;0.94;59.60;100532.38;5116394;27;20043;-78
2022/03/06 06:53:46;;;;;;;13.90;7.28;;;;;;;0.89;56.88;100528.88;5134479;27;20047;-79
2022/03/06 06:56:13;;;;;;;14.65;7.07;;;;;;;0.75;54.28;100527.19;5132844;27;20104;-79
2022/03/06 06:58:43;;;;;;;18.05;8.80;;;;;;;0.88;55.61;100536.00;5115295;27;20069;-79
2022/03/06 07:01:10;;;;;;;14.18;6.63;;;;;;;0.92;57.02;100534.19;5133239;27;20379;-79
2022/03/06 07:03:38;;;;;;;12.10;6.38;;;;;;;0.94;55.85;100533.28;5114495;27;20486;-79
2022/03/06 07:06:05;;;;;;;12.40;6.40;;;;;;;1.00;55.76;100532.34;5133617;27;20114;-79
2022/03/06 07:08:33;;;;;;;13.02;6.38;;;;;;;1.01;56.06;100526.13;5114077;27;20048;-79
2022/03/06 07:11:01;;;;;;;13.75;6.90;;;;;;;1.00;56.16;100535.91;5113904;27;20050;-79
2022/03/06 07:13:28;;;;;;;13.13;6.45;;;;;;;0.97;55.33;100530.59;5113606;27;20043;-79
2022/03/06 07:15:58;;;;;;;12.63;6.38;;;;;;;1.01;56.16;100532.34;5113305;27;20390;-79
2022/03/06 07:18:25;;;;;;;14.32;6.32;;;;;;;1.03;54.86;100526.13;5113699;27;20051;-78
2022/03/06 07:20:53;;;;;;;12.50;6.55;;;;;;;1.00;55.38;100529.69;5113088;27;20051;-79
2022/03/06 07:23:21;;;;;;;14.23;6.95;;;;;;;1.09;54.46;100539.41;5113444;27;20043;-79
2022/03/06 07:25:48;;;;;;;13.48;7.18;;;;;;;1.04;54.68;100536.78;5113630;27;20047;-79
2022/03/06 07:28:17;;;;;;;14.80;7.03;;;;;;;1.04;54.21;100541.22;5113294;28;20592;-79
2022/03/06 07:30:44;;;;;;;16.02;7.90;;;;;;;0.99;53.22;100539.47;5118650;27;20497;-79
2022/03/06 07:33:13;;;;;;;14.45;7.22;;;;;;;1.04;54.27;100536.78;5133750;27;20059;-79
2022/03/06 07:35:42;;;;;;;13.23;6.85;;;;;;;1.06;54.40;100539.44;5128815;27;20167;-79
2022/03/06 07:38:10;;;;;;;12.82;6.90;;;;;;;1.08;54.30;100535.88;5117492;27;20077;-79
2022/03/06 07:40:37;;;;;;;13.38;6.82;;;;;;;1.15;54.91;100542.03;5129820;27;20051;-79
2022/03/06 07:43:05;;;;;;;120.28;24.80;;;;;;;1.21;54.07;100533.13;5116772;27;20080;-79
2022/03/06 07:45:32;;;;;;;49.55;13.80;;;;;;;1.23;52.77;100526.91;5130889;27;20566;-79
2022/03/06 07:48:00;;;;;;;48.53;13.88;;;;;;;1.14;53.07;100530.50;5115915;28;20494;-79
2022/03/06 07:50:29;;;;;;;17.40;8.30;;;;;;;1.20;54.02;100526.03;5131281;27;20039;-78
2022/03/06 07:52:57;;;;;;;13.82;6.97;;;;;;;1.11;53.22;100526.97;5115079;27;20048;-81
2022/03/06 07:55:24;;;;;;;13.55;6.75;;;;;;;1.03;52.93;100524.38;5132329;27;20051;-76
2022/03/06 07:57:52;;;;;;;15.65;7.20;;;;;;;1.06;52.47;100520.78;5113214;27;20047;-83
2022/03/06 08:00:19;;;;;;;16.75;8.25;;;;;;;1.08;52.03;100521.66;5113152;27;20054;-80
2022/03/06 08:02:47;;;;;;;13.60;7.22;;;;;;;1.19;53.43;100526.94;5113192;27;20514;-81
2022/03/06 08:05:15;;;;;;;13.18;6.93;;;;;;;1.22;54.57;100526.91;5130325;27;20915;-81
2022/03/06 08:07:44;;;;;;;14.52;6.72;;;;;;;1.23;54.07;100526.91;5110097;27;20459;-82
2022/03/06 08:10:11;;;;;;;13.23;6.70;;;;;;;1.20;53.71;100526.03;5127631;27;20034;-80
2022/03/06 08:12:40;;;;;;;17.77;8.00;;;;;;;1.24;53.19;100520.69;5129691;27;20347;-81
2022/03/06 08:15:09;;;;;;;28.83;13.63;;;;;;;1.23;52.23;100523.34;5129365;27;20043;-78
2022/03/06 08:17:37;;;;;;;24.02;10.95;;;;;;;1.20;52.36;100520.72;5129502;27;20047;-79
2022/03/06 08:20:05;;;;;;;23.63;11.80;;;;;;;1.04;50.53;100518.16;5128945;27;20047;-78
2022/03/06 08:22:33;;;;;;;23.35;11.82;;;;;;;0.98;49.68;100520.84;5129024;27;20056;-77
2022/03/06 08:25:02;;;;;;;34.00;21.23;;;;;;;1.01;49.85;100518.16;5129430;27;20054;-78
2022/03/06 08:27:30;;;;;;;32.20;16.38;;;;;;;0.97;51.43;100516.41;5131933;27;20043;-78
2022/03/06 08:29:57;;;;;;;20.80;10.65;;;;;;;1.03;51.10;100513.75;5133277;27;20039;-78
2022/03/06 08:32:25;;;;;;;24.80;15.07;;;;;;;1.30;51.17;100517.09;5130815;27;20043;-80
2022/03/06 08:34:53;;;;;;;37.88;16.98;;;;;;;1.65;50.65;100518.59;5131559;27;20046;-81
2022/03/06 08:37:21;;;;;;;34.60;15.18;;;;;;;1.80;50.68;100506.91;5130603;27;20039;-80
2022/03/06 08:39:49;;;;;;;19.40;10.23;;;;;;;1.90;50.60;100507.72;5133064;27;20401;-80
2022/03/06 08:42:18;;;;;;;18.02;8.00;;;;;;;1.86;48.42;100508.66;5132409;27;20055;-79
2022/03/06 08:44:46;;;;;;;13.50;7.32;;;;;;;1.76;47.81;100510.50;5132677;27;20050;-78
2022/03/06 08:47:13;;;;;;;23.50;10.40;;;;;;;2.08;46.43;100509.31;5131404;27;20451;-80
2022/03/06 08:49:41;;;;;;;95.93;33.65;;;;;;;2.14;47.41;100519.91;5132991;27;20050;-79
2022/03/06 08:52:10;;;;;;;18.38;9.35;;;;;;;2.07;46.95;100503.97;5131119;27;20068;-80
2022/03/06 08:54:38;;;;;;;14.23;7.38;;;;;;;2.58;46.83;100496.25;5132677;27;20063;-79
2022/03/06 08:57:06;;;;;;;13.88;7.40;;;;;;;2.58;46.08;100496.25;5132277;27;20058;-80
2022/03/06 08:59:35;;;;;;;15.38;8.18;;;;;;;2.15;45.41;100507.44;5132312;27;20062;-80
2022/03/06 09:02:03;;;;;;;37.80;16.60;;;;;;;2.25;46.15;100498.47;5131667;27;20042;-74
2022/03/06 09:04:33;;;;;;;20.02;9.32;;;;;;;2.11;44.58;100495.03;5131706;27;20078;-77
2022/03/06 09:07:01;;;;;;;28.80;13.18;;;;;;;2.40;45.34;100496.50;5135111;27;20035;-79
2022/03/06 09:09:28;;;;;;;50.92;18.10;;;;;;;2.50;44.63;100490.13;5135043;27;20042;-78
2022/03/06 09:11:56;;;;;;;31.58;13.65;;;;;;;2.42;44.90;100489.34;5134858;27;20443;-78
2022/03/06 09:14:23;;;;;;;17.15;8.52;;;;;;;2.74;45.59;100496.94;5134880;27;20050;-78
2022/03/06 09:16:52;;;;;;;15.45;8.40;;;;;;;2.74;45.75;100490.72;5132021;27;20039;-80
2022/03/06 09:19:20;;;;;;;15.00;8.98;;;;;;;2.18;44.65;100488.75;5134889;27;20382;-77
2022/03/06 09:21:48;;;;;;;50.28;28.60;;;;;;;2.59;45.54;100487.34;5134774;27;20374;-77
2022/03/06 09:24:15;;;;;;;15.35;8.30;;;;;;;2.72;46.14;100489.88;5134851;27;20043;-78
2022/03/06 09:26:43;;;;;;;15.95;8.80;;;;;;;3.03;45.44;100481.41;5135010;27;20043;-77
2022/03/06 09:29:10;;;;;;;15.93;8.80;;;;;;;3.06;44.79;100481.38;5132124;27;20047;-79
2022/03/06 09:31:39;;;;;;;14.88;8.38;;;;;;;2.97;44.99;100481.50;5134444;27;20453;-78
2022/03/06 09:34:08;;;;;;;15.88;8.88;;;;;;;2.85;43.50;100480.78;5134318;27;20055;-80
2022/03/06 09:36:36;;;;;;;16.77;8.45;;;;;;;3.13;45.52;100479.50;5134571;27;20043;-78
2022/03/06 09:39:04;;;;;;;15.27;8.82;;;;;;;3.53;46.13;100476.16;5134486;27;20047;-77
2022/03/06 09:41:33;;;;;;;30.42;14.38;;;;;;;3.47;43.89;100473.59;5134431;27;20135;-78
2022/03/06 09:44:01;;;;;;;20.13;10.27;;;;;;;3.17;43.83;100478.53;5134443;27;20046;-78
2022/03/06 09:46:29;;;;;;;15.68;9.15;;;;;;;3.11;42.77;100481.31;5133948;27;20130;-77
2022/03/06 09:48:56;;;;;;;25.73;12.32;;;;;;;3.34;44.36;100472.94;5134291;27;20050;-76
2022/03/06 09:51:25;;;;;;;29.27;14.88;;;;;;;3.31;43.82;100463.19;5133994;27;20039;-77
2022/03/06 09:53:54;;;;;;;16.95;8.85;;;;;;;3.21;44.14;100461.56;5131063;27;20051;-77
2022/03/06 09:56:21;;;;;;;21.02;11.18;;;;;;;3.25;44.30;100459.72;5134130;27;20039;-77
2022/03/06 09:58:49;;;;;;;18.23;9.32;;;;;;;3.12;44.47;100465.28;5131773;27;20035;-77
2022/03/06 10:01:17;;;;;;;17.27;9.52;;;;;;;3.55;45.75;100461.00;5133677;27;20075;-77
2022/03/06 10:03:44;;;;;;;16.65;9.13;;;;;;;3.50;44.84;100460.19;5133780;27;20047;-77
2022/03/06 10:06:12;;;;;;;17.73;9.40;;;;;;;3.54;43.91;100469.06;5134157;27;20047;-77
2022/03/06 10:08:41;;;;;;;17.13;9.32;;;;;;;3.12;44.24;100456.38;5133779;27;20054;-78
2022/03/06 10:11:10;;;;;;;20.17;10.45;;;;;;;3.01;43.43;100456.53;5133737;27;20043;-77
2022/03/06 10:13:39;;;;;;;25.90;13.85;;;;;;;3.41;44.64;100461.22;5133502;27;20047;-78
2022/03/06 10:16:12;;;;;;;18.98;10.68;;;;;;;3.33;43.83;100466.72;5133894;27;20095;-78
2022/03/06 10:18:41;;;;;;;24.95;13.23;;;;;;;3.30;45.00;100471.22;5134769;27;20125;-77
2022/03/06 10:21:27;;;;;;;18.52;10.73;;;;;;;3.06;44.34;100464.47;5133914;27;20405;-77
2022/03/06 10:23:58;;;;;;;24.63;12.83;;;;;;;3.03;45.47;100465.38;5133562;27;20039;-77
2022/03/06 10:26:27;;;;;;;33.60;15.65;;;;;;;2.86;44.87;100466.53;5135778;27;20074;-78
2022/03/06 10:28:56;;;;;;;29.88;16.52;;;;;;;2.83;45.68;100469.25;5133973;27;20043;-78
2022/03/06 10:31:25;;;;;;;27.75;14.07;;;;;;;2.77;45.20;100458.66;5133524;27;20390;-78
2022/03/06 10:34:04;;;;;;;21.13;12.23;;;;;;;2.25;44.36;100469.13;5130876;27;20556;-77
2022/03/06 10:36:37;;;;;;;22.48;11.77;;;;;;;2.63;46.48;100450.84;5132680;27;20047;-77
2022/03/06 10:39:11;;;;;;;21.00;11.23;;;;;;;2.80;46.53;100447.94;5131924;27;20100;-78
2022/03/06 10:41:40;;;;;;;21.27;11.20;;;;;;;3.34;46.85;100440.88;5132078;27;20398;-78
2022/03/06 10:44:10;;;;;;;19.85;11.38;;;;;;;3.50;45.01;100440.63;5130326;27;20049;-78
2022/03/06 10:46:38;;;;;;;23.80;13.57;;;;;;;3.39;44.66;100433.66;5131257;27;20039;-78
2022/03/06 10:49:12;;;;;;;18.50;10.43;;;;;;;3.60;46.25;100428.88;5130052;27;20060;-78
2022/03/06 10:51:42;;;;;;;23.27;12.68;;;;;;;3.53;45.20;100420.06;5127394;27;20527;-78
2022/03/06 10:54:13;;;;;;;22.33;12.27;;;;;;;3.48;45.47;100422.84;5130823;27;20054;-78
2022/03/06 10:56:40;;;;;;;17.02;10.45;;;;;;;3.44;44.53;100418.44;5133649;27;20070;-78
2022/03/06 10:59:08;;;;;;;23.42;12.68;;;;;;;3.40;45.50;100419.41;5129773;27;20039;-78
2022/03/06 11:01:37;;;;;;;21.27;12.23;;;;;;;3.11;45.36;100409.22;5130298;27;20043;-79
2022/03/06 11:04:07;;;;;;;20.98;12.00;;;;;;;2.95;46.12;100408.59;5130416;27;20039;-78
2022/03/06 11:06:40;;;;;;;20.42;12.00;;;;;;;3.03;47.25;100414.69;5130500;27;20493;-76
2022/03/06 11:09:13;;;;;;;36.25;16.33;;;;;;;2.90;47.22;100406.00;5131054;27;20047;-78
2022/03/06 11:11:42;;;;;;;22.00;12.57;;;;;;;2.84;46.96;100400.75;5129829;27;20504;-78
2022/03/06 11:14:12;;;;;;;26.20;14.10;;;;;;;2.93;46.68;100399.72;5131741;27;20051;-78
2022/03/06 11:16:40;;;;;;;24.10;13.95;;;;;;;2.86;47.45;100394.50;5130800;27;20046;-78
2022/03/06 11:19:09;;;;;;;20.15;11.95;;;;;;;3.07;47.08;100392.41;5131072;27;20110;-78
2022/03/06 11:21:39;;;;;;;18.10;10.90;;;;;;;3.11;46.23;100382.53;5131208;27;20385;-78
2022/03/06 11:24:09;;;;;;;64.78;28.17;;;;;;;2.97;47.38;100380.09;5129951;27;20496;-77
2022/03/06 11:27:09;;;;;;;40.33;16.77;;;;;;;3.00;45.73;100385.38;5130620;27;20042;-78